Time;durP1;ratioP1;P1;durP2;ratioP2;P2;SDS_P1;SDS_P2;PMS_P1;PMS_P2;Temp;Humidity;BMP_temperature;BMP_pressure;BME280_temperature;BME280_humidity;BME280_pressure;Samples;Min_cycle;Max_cycle;Signal;HPM_P1;HPM_P2
2022/09/30 00:01:16;;;;;;;7.68;4.68;;;13.20;90.50;;;;;;5053090;28;20087;-73
2022/09/30 00:03:42;;;;;;;7.53;5.63;;;13.10;90.50;;;;;;5052590;28;20028;-74
2022/09/30 00:06:08;;;;;;;6.18;4.88;;;13.00;90.60;;;;;;5052819;28;20025;-74
2022/09/30 00:08:36;;;;;;;6.15;4.97;;;12.90;90.80;;;;;;5052777;28;20036;-73
2022/09/30 00:11:07;;;;;;;6.50;4.80;;;12.80;91.00;;;;;;5052734;28;20025;-73
2022/09/30 00:13:35;;;;;;;5.45;4.22;;;12.60;91.10;;;;;;5052502;28;20064;-73
2022/09/30 00:16:01;;;;;;;6.18;4.13;;;12.70;91.10;;;;;;5052834;28;20029;-73
2022/09/30 00:18:27;;;;;;;6.88;4.22;;;12.90;91.10;;;;;;5052892;28;20056;-73
2022/09/30 00:20:53;;;;;;;4.85;4.13;;;13.10;90.90;;;;;;5052662;28;20476;-73
2022/09/30 00:23:21;;;;;;;8.98;4.35;;;13.20;90.70;;;;;;5052702;28;20025;-73
2022/09/30 00:25:47;;;;;;;6.88;4.65;;;13.30;90.60;;;;;;5052998;28;20029;-73
2022/09/30 00:28:13;;;;;;;10.13;5.30;;;13.40;90.40;;;;;;5056534;28;20106;-73
2022/09/30 00:30:39;;;;;;;6.95;5.20;;;13.40;90.30;;;;;;5056367;28;20104;-73
2022/09/30 00:33:04;;;;;;;6.47;4.47;;;13.40;90.20;;;;;;5056110;28;20156;-73
2022/09/30 00:35:30;;;;;;;6.53;5.22;;;13.50;90.20;;;;;;5056326;28;20373;-73
2022/09/30 00:37:56;;;;;;;6.82;4.70;;;13.50;90.20;;;;;;5056546;28;20025;-73
2022/09/30 00:40:21;;;;;;;6.43;4.60;;;13.50;90.20;;;;;;5056538;28;20029;-72
2022/09/30 00:42:48;;;;;;;8.88;5.07;;;13.50;90.20;;;;;;5056168;28;20028;-72
2022/09/30 00:45:16;;;;;;;5.85;4.00;;;13.60;90.10;;;;;;5056327;28;20052;-72
2022/09/30 00:47:59;;;;;;;8.32;4.82;;;13.60;90.10;;;;;;5055752;28;20036;-74
2022/09/30 00:50:45;;;;;;;6.13;4.30;;;13.70;89.90;;;;;;5056105;28;20075;-73
2022/09/30 00:53:14;;;;;;;5.10;4.18;;;13.80;89.70;;;;;;5056342;28;20021;-73
2022/09/30 00:56:06;;;;;;;5.32;3.97;;;13.80;89.50;;;;;;5056034;28;20403;-73
2022/09/30 00:58:44;;;;;;;4.95;3.47;;;13.80;89.30;;;;;;5056254;28;20108;-73
2022/09/30 01:01:11;;;;;;;7.22;4.80;;;13.90;89.20;;;;;;5056059;28;20025;-73
2022/09/30 01:03:52;;;;;;;7.70;4.97;;;13.90;89.00;;;;;;5055792;28;20033;-73
2022/09/30 01:06:21;;;;;;;6.35;4.13;;;13.90;88.80;;;;;;5055796;28;20087;-74
2022/09/30 01:08:47;;;;;;;6.45;4.20;;;13.90;88.80;;;;;;5055660;28;20040;-73
2022/09/30 01:11:13;;;;;;;5.15;4.45;;;13.90;88.60;;;;;;5055897;28;20025;-73
2022/09/30 01:13:41;;;;;;;5.93;4.38;;;13.90;88.50;;;;;;5055758;28;20452;-73
2022/09/30 01:16:36;;;;;;;5.97;4.10;;;13.90;88.60;;;;;;5055895;28;20091;-73
2022/09/30 01:19:22;;;;;;;5.93;4.65;;;13.80;88.50;;;;;;5055227;28;20029;-73
2022/09/30 01:22:04;;;;;;;5.25;3.67;;;13.90;88.50;;;;;;5055520;28;20025;-73
2022/09/30 01:24:56;;;;;;;4.78;3.30;;;13.90;88.60;;;;;;5055441;28;20488;-73
2022/09/30 01:28:03;;;;;;;5.38;4.82;;;13.90;88.60;;;;;;5055185;28;20048;-73
2022/09/30 01:30:56;;;;;;;5.40;4.20;;;13.70;88.50;;;;;;5055403;28;20021;-73
2022/09/30 01:33:55;;;;;;;6.25;4.28;;;13.70;88.70;;;;;;5055147;28;20025;-73
2022/09/30 01:36:39;;;;;;;5.93;4.55;;;13.80;88.70;;;;;;5054960;28;20123;-73
2022/09/30 01:39:20;;;;;;;5.80;4.57;;;13.80;88.60;;;;;;5055216;28;20021;-73
2022/09/30 01:42:22;;;;;;;8.65;4.55;;;13.80;88.40;;;;;;5055318;28;20021;-73
2022/09/30 01:45:02;;;;;;;5.55;3.97;;;13.80;88.50;;;;;;5055210;28;20021;-73
2022/09/30 01:47:39;;;;;;;5.60;4.50;;;13.80;88.40;;;;;;5054922;28;20396;-73
2022/09/30 01:50:20;;;;;;;5.72;4.47;;;13.80;88.80;;;;;;5054811;28;20025;-74
2022/09/30 01:53:14;;;;;;;6.45;5.65;;;13.80;88.50;;;;;;5055196;28;20396;-74
2022/09/30 01:55:51;;;;;;;7.25;5.43;;;13.90;89.10;;;;;;5054950;28;20025;-73
2022/09/30 01:58:35;;;;;;;7.15;5.38;;;13.80;88.40;;;;;;5054884;28;20033;-73
2022/09/30 02:01:05;;;;;;;6.82;4.82;;;13.80;88.40;;;;;;5055092;28;20047;-74
2022/09/30 02:03:38;;;;;;;4.93;4.13;;;13.80;88.30;;;;;;5054504;28;20470;-74
2022/09/30 02:06:13;;;;;;;;;;;13.80;88.70;;;;;;5055194;28;20095;-74
2022/09/30 02:08:56;;;;;;;7.15;5.57;;;13.80;88.60;;;;;;5054909;28;19912;-74
2022/09/30 02:11:42;;;;;;;7.45;4.90;;;13.70;88.20;;;;;;5054540;28;20537;-74
2022/09/30 02:14:26;;;;;;;6.50;5.75;;;13.60;88.30;;;;;;5054485;28;20028;-74
2022/09/30 02:17:04;;;;;;;8.25;5.78;;;13.40;88.50;;;;;;5054280;28;20056;-74
2022/09/30 02:19:38;;;;;;;7.22;5.57;;;13.40;88.70;;;;;;5054603;28;20473;-74
2022/09/30 02:22:14;;;;;;;6.85;4.40;;;13.40;88.70;;;;;;5054505;28;20163;-74
2022/09/30 02:24:43;;;;;;;4.75;4.22;;;13.40;88.90;;;;;;5054441;28;20025;-74
2022/09/30 02:27:14;;;;;;;6.85;5.53;;;13.50;89.00;;;;;;5053705;28;20057;-74
2022/09/30 02:29:45;;;;;;;6.10;5.10;;;13.50;89.10;;;;;;5054142;28;20480;-74
2022/09/30 02:32:19;;;;;;;10.65;4.55;;;13.60;89.00;;;;;;5054415;28;20104;-74
2022/09/30 02:34:50;;;;;;;6.90;5.50;;;13.70;89.10;;;;;;5054112;28;20040;-74
2022/09/30 02:37:35;;;;;;;8.27;6.47;;;13.70;88.90;;;;;;5053877;28;20139;-73
2022/09/30 02:40:31;;;;;;;9.73;6.57;;;13.60;88.40;;;;;;5053970;28;20033;-74
2022/09/30 02:42:57;;;;;;;7.38;5.55;;;13.60;88.40;;;;;;5053963;28;20033;-73
2022/09/30 02:45:23;;;;;;;7.07;5.85;;;13.50;88.30;;;;;;5053949;28;20066;-74
2022/09/30 02:47:54;;;;;;;7.68;6.50;;;13.60;88.30;;;;;;5053550;28;20124;-73
2022/09/30 02:50:42;;;;;;;7.55;5.57;;;13.60;88.20;;;;;;5053255;28;20017;-72
2022/09/30 02:53:20;;;;;;;6.95;5.50;;;13.60;88.20;;;;;;5054089;28;20028;-73
2022/09/30 02:55:59;;;;;;;6.63;5.93;;;13.60;88.00;;;;;;5053677;28;20074;-74
2022/09/30 02:58:25;;;;;;;7.43;5.82;;;13.60;88.00;;;;;;5053549;28;20025;-74
2022/09/30 03:00:53;;;;;;;7.00;5.68;;;13.60;88.10;;;;;;5053531;28;20022;-74
2022/09/30 03:03:21;;;;;;;8.70;6.07;;;13.60;88.60;;;;;;5053931;28;20155;-73
2022/09/30 03:05:50;;;;;;;7.10;5.70;;;13.60;87.90;;;;;;5053712;28;20078;-73
2022/09/30 03:08:16;;;;;;;8.23;6.07;;;13.60;87.90;;;;;;5053589;28;20048;-73
2022/09/30 03:10:43;;;;;;;9.50;5.38;;;13.50;88.40;;;;;;5053593;28;20461;-73
2022/09/30 03:13:36;;;;;;;7.45;5.50;;;13.50;87.90;;;;;;5053455;28;20490;-72
2022/09/30 03:16:04;;;;;;;6.07;5.45;;;13.50;87.90;;;;;;5053767;28;20362;-73
2022/09/30 03:18:48;;;;;;;5.85;4.30;;;13.60;88.00;;;;;;5053232;28;20075;-73
2022/09/30 03:21:30;;;;;;;5.38;3.75;;;13.50;88.10;;;;;;5053506;28;20072;-73
2022/09/30 03:24:08;;;;;;;6.00;4.47;;;13.50;88.40;;;;;;5053238;28;20041;-73
2022/09/30 03:26:35;;;;;;;6.85;5.20;;;13.50;88.50;;;;;;5053079;28;20124;-73
2022/09/30 03:29:16;;;;;;;6.05;5.40;;;13.50;88.50;;;;;;5053145;28;20063;-72
2022/09/30 03:32:04;;;;;;;5.88;5.25;;;13.40;88.60;;;;;;5053560;28;20025;-72
2022/09/30 03:34:52;;;;;;;6.47;5.38;;;13.40;88.70;;;;;;5052924;28;20485;-73
2022/09/30 03:37:56;;;;;;;9.30;6.72;;;13.40;88.70;;;;;;5053161;28;20035;-73
2022/09/30 03:40:21;;;;;;;8.77;7.10;;;13.30;88.50;;;;;;5053448;28;20017;-73
2022/09/30 03:42:56;;;;;;;8.38;6.75;;;13.20;88.50;;;;;;5052989;28;20653;-73
2022/09/30 03:45:30;;;;;;;7.70;6.20;;;13.10;88.70;;;;;;5053278;28;20039;-72
2022/09/30 03:48:00;;;;;;;7.82;6.60;;;13.10;88.80;;;;;;5052894;28;20037;-73
2022/09/30 03:50:28;;;;;;;8.60;7.10;;;13.10;88.70;;;;;;5053183;28;20025;-73
2022/09/30 03:52:54;;;;;;;11.48;7.78;;;13.00;88.40;;;;;;5053130;28;20036;-73
2022/09/30 03:55:22;;;;;;;9.05;7.20;;;12.80;88.90;;;;;;5053188;28;20372;-73
2022/09/30 03:57:48;;;;;;;9.80;7.07;;;12.80;89.30;;;;;;5053072;28;20018;-73
2022/09/30 04:00:14;;;;;;;9.00;6.88;;;12.70;89.50;;;;;;5054544;28;20028;-73
2022/09/30 04:02:40;;;;;;;10.40;8.07;;;12.80;89.60;;;;;;5057315;28;20127;-72
2022/09/30 04:05:07;;;;;;;11.20;7.97;;;12.80;89.90;;;;;;5057187;28;20124;-73
2022/09/30 04:07:33;;;;;;;7.72;5.97;;;12.80;89.60;;;;;;5056823;28;20104;-73
2022/09/30 04:09:59;;;;;;;7.07;6.32;;;12.80;89.70;;;;;;5056822;28;20037;-73
2022/09/30 04:12:25;;;;;;;7.93;6.78;;;12.90;89.80;;;;;;5056740;28;20024;-73
2022/09/30 04:14:51;;;;;;;10.82;6.25;;;13.00;89.60;;;;;;5057073;28;20029;-73
2022/09/30 04:17:17;;;;;;;8.52;6.72;;;13.10;89.60;;;;;;5056606;28;20546;-73
2022/09/30 04:19:42;;;;;;;9.38;7.60;;;13.10;89.30;;;;;;5056573;28;20071;-73
2022/09/30 04:22:09;;;;;;;11.45;7.57;;;13.00;88.70;;;;;;5056616;28;20037;-73
2022/09/30 04:24:35;;;;;;;8.57;6.93;;;12.90;88.80;;;;;;5056555;28;20025;-74
2022/09/30 04:27:01;;;;;;;8.52;7.57;;;12.80;89.00;;;;;;5056321;28;20064;-73
2022/09/30 04:29:27;;;;;;;9.43;7.35;;;12.80;89.20;;;;;;5056714;28;20111;-73
2022/09/30 04:31:53;;;;;;;8.80;7.45;;;12.80;89.20;;;;;;5056242;28;20541;-74
2022/09/30 04:34:18;;;;;;;8.95;7.30;;;12.80;89.10;;;;;;5056449;28;20075;-73
2022/09/30 04:36:44;;;;;;;10.35;7.68;;;12.70;89.30;;;;;;5056354;28;20025;-73
2022/09/30 04:39:09;;;;;;;10.13;7.95;;;12.70;89.40;;;;;;5056254;28;20108;-73
2022/09/30 04:41:35;;;;;;;9.32;7.05;;;12.80;89.40;;;;;;5056450;28;20029;-73
2022/09/30 04:44:05;;;;;;;10.90;7.55;;;12.80;89.30;;;;;;5056439;28;20032;-72
2022/09/30 04:46:35;;;;;;;9.05;6.65;;;12.80;89.20;;;;;;5055948;28;20029;-73
2022/09/30 04:49:02;;;;;;;9.95;7.40;;;12.90;89.10;;;;;;5056104;28;20039;-73
2022/09/30 04:51:28;;;;;;;10.10;7.63;;;12.90;89.00;;;;;;5055919;28;20025;-73
2022/09/30 04:53:54;;;;;;;12.02;7.50;;;12.90;89.00;;;;;;5056229;28;20039;-73
2022/09/30 04:56:22;;;;;;;9.77;7.22;;;12.90;89.00;;;;;;5055595;28;20017;-74
2022/09/30 04:58:48;;;;;;;9.75;7.63;;;12.90;88.90;;;;;;5055960;28;20538;-73
2022/09/30 05:01:15;;;;;;;9.13;6.93;;;12.90;88.90;;;;;;5055923;28;20037;-72
2022/09/30 05:03:42;;;;;;;10.88;7.30;;;12.90;89.60;;;;;;5055596;28;20485;-73
2022/09/30 05:06:09;;;;;;;11.40;7.60;;;12.90;89.00;;;;;;5055645;28;20045;-73
2022/09/30 05:08:34;;;;;;;9.45;7.00;;;13.00;89.00;;;;;;5055914;28;20078;-72
2022/09/30 05:11:03;;;;;;;10.45;7.30;;;13.00;89.00;;;;;;5055295;28;20029;-73
2022/09/30 05:13:34;;;;;;;6.72;5.85;;;13.00;89.00;;;;;;5055345;28;20028;-73
2022/09/30 05:16:00;;;;;;;10.68;7.13;;;13.00;89.00;;;;;;5055688;28;20025;-73
2022/09/30 05:18:26;;;;;;;9.07;7.40;;;13.00;89.30;;;;;;5055498;28;20029;-73
2022/09/30 05:20:52;;;;;;;13.45;8.13;;;12.90;89.20;;;;;;5055408;28;20083;-72
2022/09/30 05:23:19;;;;;;;8.80;6.45;;;12.90;89.00;;;;;;5055841;28;20120;-74
2022/09/30 05:25:46;;;;;;;10.13;7.25;;;12.90;89.00;;;;;;5055519;28;20051;-72
2022/09/30 05:28:15;;;;;;;9.18;7.45;;;12.90;89.00;;;;;;5055364;28;20499;-73
2022/09/30 05:30:44;;;;;;;9.13;7.70;;;12.90;89.00;;;;;;5055653;28;20380;-73
2022/09/30 05:33:11;;;;;;;9.30;7.07;;;12.90;89.00;;;;;;5055473;28;20476;-73
2022/09/30 05:35:40;;;;;;;7.82;7.00;;;12.90;88.90;;;;;;5055102;28;20032;-73
2022/09/30 05:38:06;;;;;;;8.80;7.57;;;12.90;88.80;;;;;;5055288;28;20100;-73
2022/09/30 05:40:31;;;;;;;9.02;6.07;;;12.90;88.90;;;;;;5055038;28;20599;-73
2022/09/30 05:42:58;;;;;;;8.05;6.32;;;12.90;88.90;;;;;;5055144;28;20111;-73
2022/09/30 05:45:24;;;;;;;7.53;5.43;;;13.00;89.00;;;;;;5055042;28;20036;-72
2022/09/30 05:47:53;;;;;;;12.25;6.88;;;13.00;89.20;;;;;;5054764;28;20445;-73
2022/09/30 05:50:20;;;;;;;10.23;7.50;;;13.10;89.20;;;;;;5055092;28;20025;-73
2022/09/30 05:52:46;;;;;;;9.23;7.40;;;13.00;88.90;;;;;;5055109;28;20060;-73
2022/09/30 05:55:12;;;;;;;10.77;7.38;;;13.00;88.90;;;;;;5054971;28;20079;-73
2022/09/30 05:57:38;;;;;;;9.63;6.90;;;13.00;88.90;;;;;;5054666;28;20470;-73
2022/09/30 06:00:05;;;;;;;8.50;7.28;;;13.00;89.00;;;;;;5054665;28;20039;-73
2022/09/30 06:02:31;;;;;;;8.02;6.63;;;13.00;88.90;;;;;;5054865;28;20021;-74
2022/09/30 06:04:56;;;;;;;8.18;6.20;;;13.00;89.00;;;;;;5054845;28;20441;-73
2022/09/30 06:07:22;;;;;;;9.45;6.90;;;13.00;89.00;;;;;;5054520;28;20025;-72
2022/09/30 06:09:47;;;;;;;11.07;7.70;;;13.00;89.10;;;;;;5054692;28;20039;-73
2022/09/30 06:12:14;;;;;;;10.43;7.60;;;13.00;89.00;;;;;;5054440;28;20047;-73
2022/09/30 06:14:40;;;;;;;7.50;6.70;;;13.00;89.10;;;;;;5054645;28;20029;-73
2022/09/30 06:17:05;;;;;;;11.52;7.60;;;13.00;89.80;;;;;;5054510;28;20529;-73
2022/09/30 06:19:31;;;;;;;10.07;7.43;;;13.00;89.30;;;;;;5054490;28;20376;-73
2022/09/30 06:21:57;;;;;;;10.25;7.82;;;13.00;89.40;;;;;;5054261;28;20033;-73
2022/09/30 06:24:23;;;;;;;8.52;6.35;;;13.00;89.50;;;;;;5054229;28;20032;-73
2022/09/30 06:26:48;;;;;;;8.95;7.70;;;13.00;89.50;;;;;;5054123;28;20508;-73
2022/09/30 06:29:14;;;;;;;10.40;7.80;;;13.10;89.40;;;;;;5054064;28;20120;-73
2022/09/30 06:31:40;;;;;;;12.32;9.02;;;13.00;89.40;;;;;;5054310;28;20461;-73
2022/09/30 06:34:05;;;;;;;12.60;8.35;;;13.00;89.50;;;;;;5054047;28;20163;-72
2022/09/30 06:36:32;;;;;;;12.23;7.80;;;13.00;89.60;;;;;;5054091;28;20024;-73
2022/09/30 06:39:02;;;;;;;11.68;8.10;;;12.90;90.00;;;;;;5054226;28;20048;-73
2022/09/30 06:41:28;;;;;;;9.68;7.38;;;12.90;90.00;;;;;;5053823;28;20024;-73
2022/09/30 06:43:55;;;;;;;9.60;7.30;;;12.90;90.10;;;;;;5053802;28;20029;-73
2022/09/30 06:46:24;;;;;;;11.80;9.43;;;12.90;90.20;;;;;;5054111;28;20033;-73
2022/09/30 06:48:54;;;;;;;8.50;6.70;;;12.80;90.30;;;;;;5053545;28;20035;-74
2022/09/30 06:51:19;;;;;;;11.35;8.75;;;12.80;90.40;;;;;;5053580;28;20104;-74
2022/09/30 06:53:50;;;;;;;13.07;8.55;;;12.80;90.50;;;;;;5053980;28;20113;-73
2022/09/30 06:56:17;;;;;;;14.32;9.98;;;12.80;90.60;;;;;;5053892;28;20020;-73
2022/09/30 06:58:44;;;;;;;10.38;9.27;;;12.80;91.20;;;;;;5053464;28;20029;-73
2022/09/30 07:01:14;;;;;;;9.77;8.45;;;12.70;91.50;;;;;;5053383;28;20078;-73
2022/09/30 07:03:42;;;;;;;13.88;9.32;;;12.70;91.50;;;;;;5053570;28;20021;-73
2022/09/30 07:06:07;;;;;;;14.93;11.07;;;12.70;91.80;;;;;;5053640;28;20021;-73
2022/09/30 07:08:35;;;;;;;18.33;12.30;;;12.70;91.70;;;;;;5053184;28;20399;-73
2022/09/30 07:11:13;;;;;;;17.42;13.40;;;12.70;91.60;;;;;;5053010;28;20098;-73
2022/09/30 07:13:48;;;;;;;17.08;13.30;;;12.70;91.50;;;;;;5053519;28;20045;-73
2022/09/30 07:16:15;;;;;;;15.60;13.05;;;12.70;91.50;;;;;;5053182;28;20468;-72
2022/09/30 07:18:41;;;;;;;16.35;13.70;;;12.60;91.70;;;;;;5053077;28;20037;-73
2022/09/30 07:21:07;;;;;;;15.55;13.18;;;12.70;92.10;;;;;;5053299;28;20028;-73
2022/09/30 07:23:33;;;;;;;18.38;14.27;;;12.70;92.40;;;;;;5053175;28;20145;-73
2022/09/30 07:26:03;;;;;;;13.65;12.15;;;12.70;92.60;;;;;;5052790;28;20132;-73
2022/09/30 07:28:33;;;;;;;15.68;12.48;;;12.80;92.70;;;;;;5052866;28;20040;-72
2022/09/30 07:31:02;;;;;;;15.20;13.15;;;12.80;92.60;;;;;;5053065;28;20021;-72
2022/09/30 07:33:30;;;;;;;13.73;12.02;;;12.90;92.50;;;;;;5053204;28;20021;-72
2022/09/30 07:35:56;;;;;;;14.82;13.15;;;13.00;92.50;;;;;;5052888;28;20099;-73
2022/09/30 07:38:26;;;;;;;15.77;13.90;;;13.10;92.30;;;;;;5053345;28;20385;-73
2022/09/30 07:40:59;;;;;;;23.55;16.83;;;13.20;92.30;;;;;;5053014;28;20043;-73
2022/09/30 07:43:36;;;;;;;20.45;17.23;;;13.20;92.30;;;;;;5053023;28;20039;-73
2022/09/30 07:46:15;;;;;;;20.40;16.10;;;13.20;92.70;;;;;;5052782;28;20032;-73
2022/09/30 07:48:43;;;;;;;19.02;15.82;;;13.10;93.10;;;;;;5052866;28;20518;-73
2022/09/30 07:51:16;;;;;;;20.52;16.98;;;13.10;93.10;;;;;;5053082;28;20021;-73
2022/09/30 07:53:42;;;;;;;;;;;13.20;93.00;;;;;;5053306;28;20025;-73
2022/09/30 07:56:09;;;;;;;18.95;15.98;;;13.20;92.80;;;;;;5052635;28;19905;-73
2022/09/30 07:58:35;;;;;;;21.08;17.38;;;13.30;92.70;;;;;;5052842;28;20036;-73
2022/09/30 08:01:02;;;;;;;23.13;20.02;;;13.30;92.70;;;;;;5052746;28;20465;-73
2022/09/30 08:03:28;;;;;;;23.35;18.35;;;13.40;92.80;;;;;;5053021;28;20055;-72
2022/09/30 08:05:53;;;;;;;20.42;17.40;;;13.40;93.00;;;;;;5052653;28;20435;-72
2022/09/30 08:08:19;;;;;;;21.48;18.63;;;13.50;92.60;;;;;;5052743;28;20033;-73
2022/09/30 08:10:45;;;;;;;26.65;20.27;;;13.60;92.50;;;;;;5053138;28;20380;-73
2022/09/30 08:13:15;;;;;;;20.73;18.52;;;13.70;92.50;;;;;;5052976;28;20377;-73
2022/09/30 08:15:41;;;;;;;21.85;16.85;;;13.70;92.60;;;;;;5052983;28;20033;-73
2022/09/30 08:18:06;;;;;;;22.27;17.52;;;13.90;92.40;;;;;;5052857;28;20028;-73
2022/09/30 08:20:32;;;;;;;20.90;17.80;;;14.00;92.20;;;;;;5052494;28;20110;-74
2022/09/30 08:22:58;;;;;;;20.60;17.95;;;14.20;92.10;;;;;;5052667;28;20591;-73
2022/09/30 08:25:24;;;;;;;22.50;18.55;;;14.30;91.90;;;;;;5052772;28;20048;-74
2022/09/30 08:27:53;;;;;;;24.38;20.13;;;14.30;91.60;;;;;;5052263;28;20045;-73
2022/09/30 08:30:18;;;;;;;22.80;19.15;;;14.40;91.50;;;;;;5052625;28;20029;-74
2022/09/30 08:32:44;;;;;;;22.38;17.85;;;14.50;91.40;;;;;;5052595;28;20078;-73
2022/09/30 08:35:09;;;;;;;24.50;18.95;;;14.60;91.60;;;;;;5052747;28;20079;-73
2022/09/30 08:37:35;;;;;;;26.65;19.50;;;14.70;91.00;;;;;;5052318;28;20094;-72
2022/09/30 08:40:01;;;;;;;21.70;18.20;;;14.80;90.80;;;;;;5052421;28;20021;-73
2022/09/30 08:42:45;;;;;;;21.52;18.38;;;14.80;90.70;;;;;;5052154;28;20116;-73
2022/09/30 08:45:36;;;;;;;23.52;18.88;;;14.80;90.70;;;;;;5052203;28;20025;-73
2022/09/30 08:48:07;;;;;;;22.52;17.48;;;14.90;90.70;;;;;;5055121;28;20029;-73
2022/09/30 08:50:46;;;;;;;24.20;19.85;;;15.00;90.90;;;;;;5056025;28;20103;-73
2022/09/30 08:53:19;;;;;;;25.23;19.73;;;15.10;91.10;;;;;;5055727;28;20029;-73
2022/09/30 08:55:45;;;;;;;23.08;18.98;;;15.30;91.10;;;;;;5056272;28;20053;-73
2022/09/30 08:58:24;;;;;;;20.65;17.05;;;15.30;90.90;;;;;;5055805;28;20108;-74
2022/09/30 09:00:54;;;;;;;18.90;16.90;;;15.40;90.70;;;;;;5055722;28;20491;-73
2022/09/30 09:03:21;;;;;;;19.05;16.13;;;15.50;90.20;;;;;;5055783;28;20061;-73
2022/09/30 09:06:14;;;;;;;21.00;16.98;;;15.50;89.30;;;;;;5055974;28;20043;-73
2022/09/30 09:08:48;;;;;;;17.52;15.70;;;15.60;89.50;;;;;;5055546;28;20036;-73
2022/09/30 09:11:14;;;;;;;17.70;14.93;;;15.80;89.20;;;;;;5055860;28;20025;-73
2022/09/30 09:14:05;;;;;;;16.73;14.35;;;15.90;88.70;;;;;;5055653;28;20036;-73
2022/09/30 09:16:41;;;;;;;16.40;14.55;;;16.00;87.50;;;;;;5055719;28;20021;-74
2022/09/30 09:19:18;;;;;;;18.35;14.13;;;16.10;87.20;;;;;;5055451;28;20029;-73
2022/09/30 09:21:53;;;;;;;15.20;13.60;;;16.20;86.80;;;;;;5055219;28;20017;-73
2022/09/30 09:24:29;;;;;;;13.35;11.90;;;16.20;86.50;;;;;;5055286;28;20021;-73
2022/09/30 09:26:56;;;;;;;14.25;11.55;;;16.30;86.30;;;;;;5055247;28;20488;-73
2022/09/30 09:29:45;;;;;;;14.32;11.40;;;16.40;84.90;;;;;;5055542;28;20037;-73
2022/09/30 09:32:16;;;;;;;13.00;11.25;;;16.40;85.10;;;;;;5055338;28;20104;-73
2022/09/30 09:34:50;;;;;;;12.80;10.68;;;16.60;85.60;;;;;;5054918;28;20162;-73
2022/09/30 09:40:26;;;;;;;13.13;11.18;;;16.70;83.90;;;;;;5055100;28;20036;-74
2022/09/30 09:43:02;;;;;;;18.20;12.80;;;16.80;84.50;;;;;;5054965;28;20031;-74
2022/09/30 09:45:34;;;;;;;15.15;11.38;;;16.90;83.70;;;;;;5054987;28;20475;-74
2022/09/30 09:48:00;;;;;;;14.02;12.13;;;16.90;83.80;;;;;;5055301;28;20112;-74
2022/09/30 09:50:47;;;;;;;14.43;11.10;;;17.00;83.40;;;;;;5054971;28;20488;-74
2022/09/30 09:53:32;;;;;;;28.40;12.27;;;17.00;84.30;;;;;;5055061;28;20021;-74
2022/09/30 09:55:59;;;;;;;16.33;11.73;;;17.20;84.00;;;;;;5054606;28;20465;-74
2022/09/30 09:58:25;;;;;;;13.88;11.02;;;17.20;82.50;;;;;;5054702;28;20079;-74
2022/09/30 10:03:25;;;;;;;13.07;10.75;;;17.30;82.00;;;;;;5054453;28;20115;-74
2022/09/30 10:06:02;;;;;;;13.10;10.73;;;17.30;82.10;;;;;;5054561;28;20045;-74
2022/09/30 10:08:32;;;;;;;12.30;10.73;;;17.40;83.60;;;;;;5054258;28;20044;-73
2022/09/30 10:11:02;;;;;;;13.02;9.38;;;17.50;82.70;;;;;;5054683;28;20032;-73
2022/09/30 10:13:43;;;;;;;10.80;9.70;;;17.60;82.20;;;;;;5053256;28;20536;-73
2022/09/30 10:16:35;;;;;;;13.50;10.85;;;17.60;82.90;;;;;;5022726;28;20025;-73
2022/09/30 10:19:04;;;;;;;13.77;10.70;;;17.80;83.00;;;;;;5038278;28;20083;-74
2022/09/30 10:21:30;;;;;;;12.93;10.18;;;18.00;82.50;;;;;;5033963;28;20049;-73
2022/09/30 10:23:59;;;;;;;11.95;9.50;;;18.00;82.50;;;;;;5042291;28;20079;-75
2022/09/30 10:26:28;;;;;;;10.63;9.52;;;18.10;82.90;;;;;;5049842;28;20140;-74
2022/09/30 10:28:56;;;;;;;11.82;8.77;;;18.20;81.90;;;;;;5031549;28;20112;-72
2022/09/30 10:31:28;;;;;;;10.50;9.40;;;18.30;80.60;;;;;;5034964;28;20043;-73
2022/09/30 10:33:58;;;;;;;10.85;7.85;;;18.30;80.90;;;;;;5046373;28;20029;-73
2022/09/30 10:36:31;;;;;;;9.80;7.68;;;18.40;80.90;;;;;;5052398;28;20028;-73
2022/09/30 10:39:05;;;;;;;11.43;7.97;;;18.60;81.50;;;;;;5045264;28;20061;-73
2022/09/30 10:41:32;;;;;;;9.57;7.88;;;18.60;78.70;;;;;;5053100;28;20064;-73
2022/09/30 10:44:01;;;;;;;10.20;7.68;;;18.60;78.30;;;;;;5033781;28;20022;-75
2022/09/30 10:46:31;;;;;;;10.00;7.78;;;18.80;79.10;;;;;;5018086;28;20472;-73
2022/09/30 10:48:58;;;;;;;10.73;9.43;;;18.80;77.60;;;;;;5034462;28;20041;-74
2022/09/30 10:51:32;;;;;;;9.10;8.20;;;18.80;77.00;;;;;;5033748;28;20025;-74
2022/09/30 10:53:58;;;;;;;8.57;7.45;;;18.70;76.90;;;;;;5042786;28;20036;-74
2022/09/30 10:56:44;;;;;;;8.27;7.45;;;18.80;77.40;;;;;;5051029;28;20029;-73
2022/09/30 10:59:26;;;;;;;8.48;6.78;;;18.90;77.20;;;;;;5029222;28;20028;-73
2022/09/30 11:02:21;;;;;;;8.80;7.90;;;18.90;76.60;;;;;;5032059;28;20024;-74
2022/09/30 11:05:03;;;;;;;9.05;6.15;;;18.90;76.80;;;;;;5046660;28;20803;-74
2022/09/30 11:07:53;;;;;;;8.30;6.22;;;18.90;76.00;;;;;;5033436;28;20036;-74
2022/09/30 11:10:47;;;;;;;7.45;6.05;;;18.80;74.90;;;;;;5041773;28;20108;-74
2022/09/30 11:13:49;;;;;;;6.43;5.82;;;18.90;75.90;;;;;;5043262;28;20104;-74
2022/09/30 11:16:31;;;;;;;8.60;5.63;;;19.00;76.00;;;;;;5051510;28;20464;-73
2022/09/30 11:19:19;;;;;;;6.23;5.47;;;19.10;76.10;;;;;;5042250;28;20029;-73
2022/09/30 11:21:46;;;;;;;6.70;5.60;;;19.20;75.50;;;;;;5043642;28;20036;-73
2022/09/30 11:24:24;;;;;;;7.88;6.05;;;19.20;74.80;;;;;;5039110;28;20068;-73
2022/09/30 11:27:33;;;;;;;5.13;4.72;;;19.10;74.90;;;;;;5033002;28;20045;-74
2022/09/30 11:30:14;;;;;;;5.40;4.90;;;19.00;73.90;;;;;;5031913;28;20049;-73
2022/09/30 11:33:16;;;;;;;6.43;5.80;;;19.00;72.90;;;;;;5042930;28;20083;-73
2022/09/30 11:36:00;;;;;;;7.28;5.75;;;18.90;73.00;;;;;;5049632;28;20032;-74
2022/09/30 11:38:28;;;;;;;7.78;6.80;;;18.80;74.10;;;;;;5037943;28;20104;-73
2022/09/30 11:41:07;;;;;;;10.15;7.43;;;18.70;74.00;;;;;;5032387;28;20039;-73
2022/09/30 11:44:14;;;;;;;10.45;7.32;;;18.60;74.00;;;;;;5044859;28;20036;-74
2022/09/30 11:46:46;;;;;;;9.38;7.63;;;18.60;74.20;;;;;;5032422;28;20027;-74
2022/09/30 11:49:36;;;;;;;10.52;7.30;;;18.70;75.40;;;;;;5029150;28;20397;-74
2022/09/30 11:52:45;;;;;;;12.60;8.75;;;18.90;76.30;;;;;;5043209;28;20042;-74
2022/09/30 11:55:35;;;;;;;10.05;7.40;;;19.00;74.70;;;;;;5044456;28;20123;-74
2022/09/30 11:58:12;;;;;;;11.45;8.73;;;19.00;73.70;;;;;;5036738;28;20025;-74
2022/09/30 12:00:44;;;;;;;11.65;8.38;;;19.00;73.60;;;;;;5038712;28;20025;-74
2022/09/30 12:03:32;;;;;;;10.52;8.00;;;18.90;73.80;;;;;;5040695;28;20052;-74
2022/09/30 12:06:03;;;;;;;11.30;6.95;;;19.00;74.80;;;;;;5040408;28;20025;-74
2022/09/30 12:08:41;;;;;;;6.53;5.80;;;19.00;73.70;;;;;;5045554;28;20481;-74
2022/09/30 12:11:12;;;;;;;10.15;7.55;;;19.20;73.60;;;;;;5039269;28;20041;-74
2022/09/30 12:13:43;;;;;;;10.23;7.40;;;19.20;72.80;;;;;;5044766;28;20064;-74
2022/09/30 12:16:18;;;;;;;10.82;7.32;;;19.00;71.70;;;;;;5036713;28;20029;-74
2022/09/30 12:18:55;;;;;;;6.72;5.35;;;18.90;72.60;;;;;;5044234;28;20560;-73
2022/09/30 12:21:35;;;;;;;5.72;4.18;;;18.90;71.30;;;;;;5050313;28;20057;-73
2022/09/30 12:24:12;;;;;;;5.13;4.50;;;18.90;72.00;;;;;;5036807;28;20524;-73
2022/09/30 12:26:40;;;;;;;4.85;4.03;;;19.00;71.50;;;;;;5035987;28;20038;-74
2022/09/30 12:32:09;;;;;;;5.68;3.78;;;19.20;72.60;;;;;;5046559;28;20051;-74
2022/09/30 12:34:48;;;;;;;4.53;2.28;;;19.10;72.10;;;;;;5039404;28;20063;-73
2022/09/30 12:37:32;;;;;;;4.15;2.85;;;19.20;73.30;;;;;;5044737;28;20428;-74
2022/09/30 12:40:18;;;;;;;2.55;2.10;;;19.20;72.30;;;;;;5040684;28;20033;-73
2022/09/30 12:43:02;;;;;;;3.20;2.17;;;19.20;72.60;;;;;;5044702;28;20033;-74
2022/09/30 12:45:53;;;;;;;2.45;1.90;;;19.20;72.30;;;;;;5042178;28;20033;-73
2022/09/30 12:48:22;;;;;;;3.45;1.75;;;19.20;72.30;;;;;;5037236;28;20033;-73
2022/09/30 12:50:52;;;;;;;2.00;1.25;;;19.20;72.40;;;;;;5042555;28;20108;-74
2022/09/30 12:53:46;;;;;;;2.15;1.60;;;19.40;72.60;;;;;;5035751;28;20120;-73
2022/09/30 12:56:14;;;;;;;2.90;1.13;;;19.40;71.00;;;;;;5015768;28;20030;-73
2022/09/30 12:58:43;;;;;;;3.90;1.20;;;19.40;70.20;;;;;;5015712;28;20441;-74
2022/09/30 13:01:21;;;;;;;1.42;0.90;;;19.40;70.70;;;;;;5016465;28;20026;-74
2022/09/30 13:03:51;;;;;;;2.05;1.00;;;19.50;70.10;;;;;;5016214;28;20030;-73
2022/09/30 13:06:20;;;;;;;1.60;0.85;;;19.50;71.10;;;;;;5016266;28;20034;-74
2022/09/30 13:08:56;;;;;;;4.38;1.20;;;19.60;70.60;;;;;;5015716;28;20029;-74
2022/09/30 13:11:32;;;;;;;2.20;0.88;;;19.80;70.50;;;;;;5015392;28;20489;-74
2022/09/30 13:14:11;;;;;;;3.42;0.65;;;20.00;71.20;;;;;;5014105;28;20036;-75
2022/09/30 13:17:07;;;;;;;2.95;0.75;;;20.00;70.40;;;;;;5013774;28;20034;-74
2022/09/30 13:19:36;;;;;;;1.85;0.85;;;20.20;71.00;;;;;;5013494;28;20077;-74